sensor_id;sensor_type;location;lat;lon;timestamp;P1;durP1;ratioP1;P2;durP2;ratioP2
12350;SDS011;6240;51.538;7.696;2022-11-12T00:01:51;3.07;;;2.50;;
12350;SDS011;6240;51.538;7.696;2022-11-12T00:04:18;4.30;;;2.60;;
12350;SDS011;6240;51.538;7.696;2022-11-12T00:06:46;4.50;;;2.90;;
12350;SDS011;6240;51.538;7.696;2022-11-12T00:09:13;4.20;;;2.63;;
12350;SDS011;6240;51.538;7.696;2022-11-12T00:11:40;4.07;;;2.73;;
12350;SDS011;6240;51.538;7.696;2022-11-12T00:14:07;4.33;;;3.23;;
12350;SDS011;6240;51.538;7.696;2022-11-12T00:16:34;4.80;;;2.80;;
12350;SDS011;6240;51.538;7.696;2022-11-12T00:19:03;4.50;;;2.67;;
12350;SDS011;6240;51.538;7.696;2022-11-12T00:21:30;4.57;;;2.73;;
12350;SDS011;6240;51.538;7.696;2022-11-12T00:23:57;4.10;;;2.53;;
12350;SDS011;6240;51.538;7.696;2022-11-12T00:26:24;4.07;;;2.60;;
12350;SDS011;6240;51.538;7.696;2022-11-12T00:28:52;2.97;;;2.43;;
12350;SDS011;6240;51.538;7.696;2022-11-12T00:31:19;3.87;;;2.97;;
12350;SDS011;6240;51.538;7.696;2022-11-12T00:33:46;3.90;;;2.80;;
12350;SDS011;6240;51.538;7.696;2022-11-12T00:36:15;6.33;;;4.03;;
12350;SDS011;6240;51.538;7.696;2022-11-12T00:38:42;3.83;;;3.00;;
12350;SDS011;6240;51.538;7.696;2022-11-12T00:41:09;4.13;;;2.90;;
12350;SDS011;6240;51.538;7.696;2022-11-12T00:43:36;3.43;;;2.40;;
12350;SDS011;6240;51.538;7.696;2022-11-12T00:46:04;4.47;;;2.80;;
12350;SDS011;6240;51.538;7.696;2022-11-12T00:48:31;3.73;;;2.90;;
12350;SDS011;6240;51.538;7.696;2022-11-12T00:50:59;6.17;;;2.77;;
12350;SDS011;6240;51.538;7.696;2022-11-12T00:53:28;5.90;;;2.90;;
12350;SDS011;6240;51.538;7.696;2022-11-12T00:55:58;3.10;;;2.67;;
12350;SDS011;6240;51.538;7.696;2022-11-12T00:58:27;3.90;;;3.03;;
12350;SDS011;6240;51.538;7.696;2022-11-12T01:00:54;3.40;;;2.50;;
12350;SDS011;6240;51.538;7.696;2022-11-12T01:03:21;5.60;;;3.10;;
12350;SDS011;6240;51.538;7.696;2022-11-12T01:05:48;4.80;;;2.93;;
12350;SDS011;6240;51.538;7.696;2022-11-12T01:08:16;5.23;;;3.03;;
12350;SDS011;6240;51.538;7.696;2022-11-12T01:10:44;3.57;;;2.60;;
12350;SDS011;6240;51.538;7.696;2022-11-12T01:13:11;4.40;;;2.83;;
12350;SDS011;6240;51.538;7.696;2022-11-12T01:15:39;4.63;;;3.03;;
12350;SDS011;6240;51.538;7.696;2022-11-12T01:18:07;4.70;;;2.90;;
12350;SDS011;6240;51.538;7.696;2022-11-12T01:20:36;4.70;;;3.40;;
12350;SDS011;6240;51.538;7.696;2022-11-12T01:23:03;6.37;;;3.23;;
12350;SDS011;6240;51.538;7.696;2022-11-12T01:25:30;4.40;;;3.30;;
12350;SDS011;6240;51.538;7.696;2022-11-12T01:27:59;4.93;;;3.47;;
12350;SDS011;6240;51.538;7.696;2022-11-12T01:30:26;4.97;;;3.83;;
12350;SDS011;6240;51.538;7.696;2022-11-12T01:32:53;4.13;;;3.50;;
12350;SDS011;6240;51.538;7.696;2022-11-12T01:35:20;7.17;;;3.80;;
12350;SDS011;6240;51.538;7.696;2022-11-12T01:37:47;4.17;;;3.73;;
12350;SDS011;6240;51.538;7.696;2022-11-12T01:40:15;5.90;;;4.30;;
12350;SDS011;6240;51.538;7.696;2022-11-12T01:42:42;4.30;;;3.80;;
12350;SDS011;6240;51.538;7.696;2022-11-12T01:45:14;4.60;;;3.93;;
12350;SDS011;6240;51.538;7.696;2022-11-12T01:47:41;5.90;;;3.77;;
12350;SDS011;6240;51.538;7.696;2022-11-12T01:50:13;5.10;;;3.60;;
12350;SDS011;6240;51.538;7.696;2022-11-12T01:52:41;5.27;;;3.93;;
12350;SDS011;6240;51.538;7.696;2022-11-12T01:55:10;4.50;;;3.47;;
12350;SDS011;6240;51.538;7.696;2022-11-12T01:57:38;5.63;;;3.60;;
12350;SDS011;6240;51.538;7.696;2022-11-12T02:00:08;5.43;;;3.40;;
12350;SDS011;6240;51.538;7.696;2022-11-12T02:02:37;3.57;;;2.97;;
12350;SDS011;6240;51.538;7.696;2022-11-12T02:05:06;4.60;;;3.23;;
12350;SDS011;6240;51.538;7.696;2022-11-12T02:07:34;4.83;;;3.93;;
12350;SDS011;6240;51.538;7.696;2022-11-12T02:10:03;6.93;;;3.77;;
12350;SDS011;6240;51.538;7.696;2022-11-12T02:12:31;3.87;;;3.20;;
12350;SDS011;6240;51.538;7.696;2022-11-12T02:15:16;4.50;;;3.67;;
12350;SDS011;6240;51.538;7.696;2022-11-12T02:17:45;5.23;;;3.50;;
12350;SDS011;6240;51.538;7.696;2022-11-12T02:20:13;3.67;;;3.27;;
12350;SDS011;6240;51.538;7.696;2022-11-12T02:22:41;3.30;;;2.80;;
12350;SDS011;6240;51.538;7.696;2022-11-12T02:25:09;3.87;;;2.60;;
12350;SDS011;6240;51.538;7.696;2022-11-12T02:27:38;4.97;;;2.90;;
12350;SDS011;6240;51.538;7.696;2022-11-12T02:30:05;3.27;;;2.70;;
12350;SDS011;6240;51.538;7.696;2022-11-12T02:32:33;4.13;;;2.57;;
12350;SDS011;6240;51.538;7.696;2022-11-12T02:35:00;4.07;;;2.70;;
12350;SDS011;6240;51.538;7.696;2022-11-12T02:37:27;3.93;;;2.80;;
12350;SDS011;6240;51.538;7.696;2022-11-12T02:39:56;4.80;;;3.23;;
12350;SDS011;6240;51.538;7.696;2022-11-12T02:42:23;4.60;;;3.10;;
12350;SDS011;6240;51.538;7.696;2022-11-12T02:44:50;4.63;;;3.27;;
12350;SDS011;6240;51.538;7.696;2022-11-12T02:47:18;3.47;;;2.97;;
12350;SDS011;6240;51.538;7.696;2022-11-12T02:49:45;3.93;;;2.63;;
12350;SDS011;6240;51.538;7.696;2022-11-12T02:52:12;6.83;;;3.40;;
12350;SDS011;6240;51.538;7.696;2022-11-12T02:54:39;5.57;;;3.20;;
12350;SDS011;6240;51.538;7.696;2022-11-12T02:57:08;3.57;;;2.80;;
12350;SDS011;6240;51.538;7.696;2022-11-12T02:59:35;4.60;;;3.10;;
12350;SDS011;6240;51.538;7.696;2022-11-12T03:02:02;5.90;;;2.97;;
12350;SDS011;6240;51.538;7.696;2022-11-12T03:04:29;5.77;;;3.07;;
12350;SDS011;6240;51.538;7.696;2022-11-12T03:06:56;5.30;;;2.77;;
12350;SDS011;6240;51.538;7.696;2022-11-12T03:09:24;3.40;;;2.83;;
12350;SDS011;6240;51.538;7.696;2022-11-12T03:11:51;4.73;;;2.90;;
12350;SDS011;6240;51.538;7.696;2022-11-12T03:14:19;4.70;;;2.83;;
12350;SDS011;6240;51.538;7.696;2022-11-12T03:16:47;3.83;;;2.50;;
12350;SDS011;6240;51.538;7.696;2022-11-12T03:19:14;4.63;;;2.80;;
12350;SDS011;6240;51.538;7.696;2022-11-12T03:21:41;3.10;;;2.53;;
12350;SDS011;6240;51.538;7.696;2022-11-12T03:24:08;4.23;;;2.70;;
12350;SDS011;6240;51.538;7.696;2022-11-12T03:26:35;4.57;;;2.43;;
12350;SDS011;6240;51.538;7.696;2022-11-12T03:29:03;3.50;;;2.47;;
12350;SDS011;6240;51.538;7.696;2022-11-12T03:31:31;5.20;;;2.67;;
12350;SDS011;6240;51.538;7.696;2022-11-12T03:33:59;3.80;;;2.47;;
12350;SDS011;6240;51.538;7.696;2022-11-12T03:36:26;4.37;;;2.77;;
12350;SDS011;6240;51.538;7.696;2022-11-12T03:38:54;4.83;;;2.47;;
12350;SDS011;6240;51.538;7.696;2022-11-12T03:41:21;2.63;;;2.20;;
12350;SDS011;6240;51.538;7.696;2022-11-12T03:43:48;4.00;;;2.50;;
12350;SDS011;6240;51.538;7.696;2022-11-12T03:46:15;3.07;;;2.27;;
12350;SDS011;6240;51.538;7.696;2022-11-12T03:48:44;3.87;;;2.50;;
12350;SDS011;6240;51.538;7.696;2022-11-12T03:51:11;2.83;;;2.30;;
12350;SDS011;6240;51.538;7.696;2022-11-12T03:53:40;4.87;;;2.70;;
12350;SDS011;6240;51.538;7.696;2022-11-12T03:56:07;3.53;;;2.70;;
12350;SDS011;6240;51.538;7.696;2022-11-12T03:58:35;2.80;;;2.20;;
12350;SDS011;6240;51.538;7.696;2022-11-12T04:01:02;3.20;;;2.37;;
12350;SDS011;6240;51.538;7.696;2022-11-12T04:03:29;3.83;;;2.70;;
12350;SDS011;6240;51.538;7.696;2022-11-12T04:05:58;3.97;;;2.30;;
12350;SDS011;6240;51.538;7.696;2022-11-12T04:08:48;2.93;;;2.20;;
12350;SDS011;6240;51.538;7.696;2022-11-12T04:11:15;3.70;;;1.93;;
12350;SDS011;6240;51.538;7.696;2022-11-12T04:13:43;4.03;;;2.13;;
12350;SDS011;6240;51.538;7.696;2022-11-12T04:16:12;3.30;;;2.30;;
12350;SDS011;6240;51.538;7.696;2022-11-12T04:18:58;4.20;;;2.33;;
12350;SDS011;6240;51.538;7.696;2022-11-12T04:21:45;3.20;;;2.50;;
12350;SDS011;6240;51.538;7.696;2022-11-12T04:24:25;2.63;;;2.00;;
12350;SDS011;6240;51.538;7.696;2022-11-12T04:27:11;4.23;;;2.77;;
12350;SDS011;6240;51.538;7.696;2022-11-12T04:29:39;3.70;;;2.17;;
12350;SDS011;6240;51.538;7.696;2022-11-12T04:32:25;4.80;;;2.10;;
12350;SDS011;6240;51.538;7.696;2022-11-12T04:34:52;4.67;;;2.20;;
12350;SDS011;6240;51.538;7.696;2022-11-12T04:37:21;2.93;;;2.10;;
12350;SDS011;6240;51.538;7.696;2022-11-12T04:39:48;2.87;;;2.13;;
12350;SDS011;6240;51.538;7.696;2022-11-12T04:42:15;2.60;;;2.13;;
12350;SDS011;6240;51.538;7.696;2022-11-12T04:45:00;2.97;;;1.83;;
12350;SDS011;6240;51.538;7.696;2022-11-12T04:47:30;3.57;;;2.63;;
12350;SDS011;6240;51.538;7.696;2022-11-12T04:49:58;2.57;;;1.90;;
12350;SDS011;6240;51.538;7.696;2022-11-12T04:52:27;4.03;;;2.10;;
12350;SDS011;6240;51.538;7.696;2022-11-12T04:54:55;4.27;;;2.00;;
12350;SDS011;6240;51.538;7.696;2022-11-12T04:57:22;2.90;;;2.20;;
12350;SDS011;6240;51.538;7.696;2022-11-12T04:59:49;2.43;;;2.00;;
12350;SDS011;6240;51.538;7.696;2022-11-12T05:02:16;3.63;;;2.00;;
12350;SDS011;6240;51.538;7.696;2022-11-12T05:04:43;3.00;;;1.67;;
12350;SDS011;6240;51.538;7.696;2022-11-12T05:07:11;4.60;;;2.00;;
12350;SDS011;6240;51.538;7.696;2022-11-12T05:09:39;2.67;;;2.20;;
12350;SDS011;6240;51.538;7.696;2022-11-12T05:12:06;3.87;;;2.40;;
12350;SDS011;6240;51.538;7.696;2022-11-12T05:14:34;4.80;;;2.60;;
12350;SDS011;6240;51.538;7.696;2022-11-12T05:17:01;4.63;;;2.80;;
12350;SDS011;6240;51.538;7.696;2022-11-12T05:19:29;3.13;;;2.60;;
12350;SDS011;6240;51.538;7.696;2022-11-12T05:21:56;3.87;;;2.70;;
12350;SDS011;6240;51.538;7.696;2022-11-12T05:24:33;3.93;;;2.67;;
12350;SDS011;6240;51.538;7.696;2022-11-12T05:27:02;2.80;;;2.60;;
12350;SDS011;6240;51.538;7.696;2022-11-12T05:29:29;3.30;;;2.77;;
12350;SDS011;6240;51.538;7.696;2022-11-12T05:31:56;4.93;;;3.17;;
12350;SDS011;6240;51.538;7.696;2022-11-12T05:34:24;4.37;;;2.70;;
12350;SDS011;6240;51.538;7.696;2022-11-12T05:36:51;4.83;;;2.70;;
12350;SDS011;6240;51.538;7.696;2022-11-12T05:39:18;4.53;;;2.80;;
12350;SDS011;6240;51.538;7.696;2022-11-12T05:41:45;5.60;;;3.00;;
12350;SDS011;6240;51.538;7.696;2022-11-12T05:44:14;5.13;;;2.53;;
12350;SDS011;6240;51.538;7.696;2022-11-12T05:46:41;3.30;;;2.80;;
12350;SDS011;6240;51.538;7.696;2022-11-12T05:49:08;3.00;;;2.70;;
12350;SDS011;6240;51.538;7.696;2022-11-12T05:51:37;5.10;;;3.10;;
12350;SDS011;6240;51.538;7.696;2022-11-12T05:54:07;4.33;;;3.33;;
12350;SDS011;6240;51.538;7.696;2022-11-12T05:56:37;5.30;;;3.07;;
12350;SDS011;6240;51.538;7.696;2022-11-12T05:59:06;3.10;;;2.80;;
12350;SDS011;6240;51.538;7.696;2022-11-12T06:01:35;4.67;;;2.87;;
12350;SDS011;6240;51.538;7.696;2022-11-12T06:04:08;4.70;;;2.73;;
12350;SDS011;6240;51.538;7.696;2022-11-12T06:06:35;3.40;;;3.03;;
12350;SDS011;6240;51.538;7.696;2022-11-12T06:09:02;4.40;;;2.90;;
12350;SDS011;6240;51.538;7.696;2022-11-12T06:11:30;5.77;;;3.37;;
12350;SDS011;6240;51.538;7.696;2022-11-12T06:13:57;5.40;;;3.57;;
12350;SDS011;6240;51.538;7.696;2022-11-12T06:16:24;4.37;;;3.30;;
12350;SDS011;6240;51.538;7.696;2022-11-12T06:18:53;5.30;;;3.20;;
12350;SDS011;6240;51.538;7.696;2022-11-12T06:21:20;8.23;;;4.53;;
12350;SDS011;6240;51.538;7.696;2022-11-12T06:23:51;4.47;;;3.10;;
12350;SDS011;6240;51.538;7.696;2022-11-12T06:26:19;3.37;;;2.90;;
12350;SDS011;6240;51.538;7.696;2022-11-12T06:28:46;4.27;;;2.83;;
12350;SDS011;6240;51.538;7.696;2022-11-12T06:31:14;4.80;;;2.57;;
12350;SDS011;6240;51.538;7.696;2022-11-12T06:33:41;4.93;;;3.03;;
12350;SDS011;6240;51.538;7.696;2022-11-12T06:36:11;3.97;;;2.80;;
12350;SDS011;6240;51.538;7.696;2022-11-12T06:38:39;4.73;;;3.07;;
12350;SDS011;6240;51.538;7.696;2022-11-12T06:41:07;3.20;;;2.27;;
12350;SDS011;6240;51.538;7.696;2022-11-12T06:43:34;4.63;;;2.87;;
12350;SDS011;6240;51.538;7.696;2022-11-12T06:46:02;2.83;;;2.60;;
12350;SDS011;6240;51.538;7.696;2022-11-12T06:48:30;6.10;;;2.97;;
12350;SDS011;6240;51.538;7.696;2022-11-12T06:50:57;6.83;;;2.80;;
12350;SDS011;6240;51.538;7.696;2022-11-12T06:53:25;3.47;;;2.40;;
12350;SDS011;6240;51.538;7.696;2022-11-12T06:55:59;3.07;;;2.63;;
12350;SDS011;6240;51.538;7.696;2022-11-12T06:58:27;2.85;;;2.40;;
12350;SDS011;6240;51.538;7.696;2022-11-12T07:00:54;3.53;;;2.50;;
12350;SDS011;6240;51.538;7.696;2022-11-12T07:03:21;2.83;;;2.30;;
12350;SDS011;6240;51.538;7.696;2022-11-12T07:05:49;3.53;;;2.57;;
12350;SDS011;6240;51.538;7.696;2022-11-12T07:08:16;2.70;;;2.13;;
12350;SDS011;6240;51.538;7.696;2022-11-12T07:10:45;2.57;;;1.80;;
12350;SDS011;6240;51.538;7.696;2022-11-12T07:13:12;2.40;;;2.20;;
12350;SDS011;6240;51.538;7.696;2022-11-12T07:15:41;3.00;;;2.27;;
12350;SDS011;6240;51.538;7.696;2022-11-12T07:18:26;2.30;;;2.10;;
12350;SDS011;6240;51.538;7.696;2022-11-12T07:20:57;4.80;;;2.60;;
12350;SDS011;6240;51.538;7.696;2022-11-12T07:23:25;4.73;;;1.80;;
12350;SDS011;6240;51.538;7.696;2022-11-12T07:25:58;3.70;;;2.30;;
12350;SDS011;6240;51.538;7.696;2022-11-12T07:28:27;5.33;;;2.97;;
12350;SDS011;6240;51.538;7.696;2022-11-12T07:30:55;4.63;;;3.30;;
12350;SDS011;6240;51.538;7.696;2022-11-12T07:33:23;7.33;;;4.03;;
12350;SDS011;6240;51.538;7.696;2022-11-12T07:35:57;4.77;;;3.40;;
12350;SDS011;6240;51.538;7.696;2022-11-12T07:38:25;6.20;;;3.20;;
12350;SDS011;6240;51.538;7.696;2022-11-12T07:40:58;5.60;;;4.13;;
12350;SDS011;6240;51.538;7.696;2022-11-12T07:45:56;4.50;;;3.23;;
12350;SDS011;6240;51.538;7.696;2022-11-12T07:48:23;4.80;;;3.40;;
12350;SDS011;6240;51.538;7.696;2022-11-12T07:50:50;5.10;;;3.47;;
12350;SDS011;6240;51.538;7.696;2022-11-12T07:53:17;4.97;;;3.37;;
12350;SDS011;6240;51.538;7.696;2022-11-12T07:55:51;4.33;;;3.33;;
12350;SDS011;6240;51.538;7.696;2022-11-12T07:58:20;3.97;;;3.27;;
12350;SDS011;6240;51.538;7.696;2022-11-12T08:00:47;7.30;;;3.77;;
12350;SDS011;6240;51.538;7.696;2022-11-12T08:03:14;7.90;;;3.33;;
12350;SDS011;6240;51.538;7.696;2022-11-12T08:05:41;7.13;;;3.57;;
12350;SDS011;6240;51.538;7.696;2022-11-12T08:08:15;5.10;;;3.67;;
12350;SDS011;6240;51.538;7.696;2022-11-12T08:10:42;5.33;;;4.00;;
12350;SDS011;6240;51.538;7.696;2022-11-12T08:13:09;6.03;;;4.53;;
12350;SDS011;6240;51.538;7.696;2022-11-12T08:15:38;8.60;;;4.13;;
12350;SDS011;6240;51.538;7.696;2022-11-12T08:18:05;5.57;;;4.30;;
12350;SDS011;6240;51.538;7.696;2022-11-12T08:20:32;7.47;;;4.00;;
12350;SDS011;6240;51.538;7.696;2022-11-12T08:22:59;7.23;;;3.87;;
12350;SDS011;6240;51.538;7.696;2022-11-12T08:25:27;8.37;;;4.20;;
12350;SDS011;6240;51.538;7.696;2022-11-12T08:27:55;5.70;;;4.20;;
12350;SDS011;6240;51.538;7.696;2022-11-12T08:30:23;5.63;;;3.70;;
12350;SDS011;6240;51.538;7.696;2022-11-12T08:32:55;5.73;;;3.70;;
12350;SDS011;6240;51.538;7.696;2022-11-12T08:35:23;5.83;;;3.23;;
12350;SDS011;6240;51.538;7.696;2022-11-12T08:37:50;6.70;;;4.10;;
12350;SDS011;6240;51.538;7.696;2022-11-12T08:40:18;7.00;;;4.10;;
12350;SDS011;6240;51.538;7.696;2022-11-12T08:42:45;8.17;;;4.30;;
12350;SDS011;6240;51.538;7.696;2022-11-12T08:45:12;6.27;;;3.87;;
12350;SDS011;6240;51.538;7.696;2022-11-12T08:47:40;7.07;;;4.53;;
12350;SDS011;6240;51.538;7.696;2022-11-12T08:50:08;6.60;;;4.43;;
12350;SDS011;6240;51.538;7.696;2022-11-12T08:52:36;7.33;;;4.37;;
12350;SDS011;6240;51.538;7.696;2022-11-12T08:55:03;6.50;;;4.10;;
12350;SDS011;6240;51.538;7.696;2022-11-12T08:57:31;4.03;;;3.03;;
12350;SDS011;6240;51.538;7.696;2022-11-12T08:59:58;6.33;;;3.43;;
12350;SDS011;6240;51.538;7.696;2022-11-12T09:02:25;4.37;;;2.83;;
12350;SDS011;6240;51.538;7.696;2022-11-12T09:04:54;3.00;;;2.53;;
12350;SDS011;6240;51.538;7.696;2022-11-12T09:07:25;2.87;;;2.33;;
12350;SDS011;6240;51.538;7.696;2022-11-12T09:09:58;3.87;;;2.10;;
12350;SDS011;6240;51.538;7.696;2022-11-12T09:12:28;3.47;;;2.40;;
12350;SDS011;6240;51.538;7.696;2022-11-12T09:14:58;5.77;;;2.47;;
12350;SDS011;6240;51.538;7.696;2022-11-12T09:17:28;3.93;;;2.70;;
12350;SDS011;6240;51.538;7.696;2022-11-12T09:19:56;2.47;;;2.27;;
12350;SDS011;6240;51.538;7.696;2022-11-12T09:22:25;3.23;;;2.30;;
12350;SDS011;6240;51.538;7.696;2022-11-12T09:24:52;2.40;;;2.00;;
12350;SDS011;6240;51.538;7.696;2022-11-12T09:27:19;2.90;;;2.23;;
12350;SDS011;6240;51.538;7.696;2022-11-12T09:29:47;4.80;;;2.50;;
12350;SDS011;6240;51.538;7.696;2022-11-12T09:32:14;3.80;;;2.50;;
12350;SDS011;6240;51.538;7.696;2022-11-12T09:34:41;6.30;;;2.27;;
12350;SDS011;6240;51.538;7.696;2022-11-12T09:37:09;5.70;;;2.73;;
12350;SDS011;6240;51.538;7.696;2022-11-12T09:39:38;6.77;;;3.67;;
12350;SDS011;6240;51.538;7.696;2022-11-12T09:42:05;4.97;;;3.43;;
12350;SDS011;6240;51.538;7.696;2022-11-12T09:44:33;5.13;;;4.43;;
12350;SDS011;6240;51.538;7.696;2022-11-12T09:47:01;5.03;;;3.60;;
12350;SDS011;6240;51.538;7.696;2022-11-12T09:49:32;5.57;;;2.73;;
12350;SDS011;6240;51.538;7.696;2022-11-12T09:52:03;4.17;;;3.10;;
12350;SDS011;6240;51.538;7.696;2022-11-12T09:54:31;5.53;;;3.60;;
12350;SDS011;6240;51.538;7.696;2022-11-12T09:57:01;4.57;;;3.20;;
12350;SDS011;6240;51.538;7.696;2022-11-12T09:59:28;5.77;;;3.60;;
12350;SDS011;6240;51.538;7.696;2022-11-12T10:01:58;4.90;;;4.10;;
12350;SDS011;6240;51.538;7.696;2022-11-12T10:07:19;6.63;;;4.60;;
12350;SDS011;6240;51.538;7.696;2022-11-12T10:09:57;6.00;;;4.77;;
12350;SDS011;6240;51.538;7.696;2022-11-12T10:12:29;4.63;;;3.57;;
12350;SDS011;6240;51.538;7.696;2022-11-12T10:15:10;5.10;;;3.47;;
12350;SDS011;6240;51.538;7.696;2022-11-12T10:18:02;6.07;;;4.40;;
12350;SDS011;6240;51.538;7.696;2022-11-12T10:20:34;7.27;;;4.37;;
12350;SDS011;6240;51.538;7.696;2022-11-12T10:23:10;5.90;;;3.70;;
12350;SDS011;6240;51.538;7.696;2022-11-12T10:25:40;6.73;;;4.23;;
12350;SDS011;6240;51.538;7.696;2022-11-12T10:28:22;5.23;;;4.00;;
12350;SDS011;6240;51.538;7.696;2022-11-12T10:30:53;6.90;;;4.47;;
12350;SDS011;6240;51.538;7.696;2022-11-12T10:33:29;6.60;;;5.13;;
12350;SDS011;6240;51.538;7.696;2022-11-12T10:36:07;12.50;;;5.67;;
12350;SDS011;6240;51.538;7.696;2022-11-12T10:38:37;6.23;;;4.47;;
12350;SDS011;6240;51.538;7.696;2022-11-12T10:41:17;5.97;;;5.00;;
12350;SDS011;6240;51.538;7.696;2022-11-12T10:43:51;11.47;;;6.30;;
12350;SDS011;6240;51.538;7.696;2022-11-12T10:46:19;11.53;;;6.43;;
12350;SDS011;6240;51.538;7.696;2022-11-12T10:48:51;11.97;;;5.80;;
12350;SDS011;6240;51.538;7.696;2022-11-12T10:51:23;9.83;;;5.80;;
12350;SDS011;6240;51.538;7.696;2022-11-12T10:53:51;8.40;;;5.70;;
12350;SDS011;6240;51.538;7.696;2022-11-12T10:56:23;9.10;;;5.20;;
12350;SDS011;6240;51.538;7.696;2022-11-12T11:01:33;7.17;;;5.83;;
12350;SDS011;6240;51.538;7.696;2022-11-12T11:04:01;11.20;;;6.33;;
12350;SDS011;6240;51.538;7.696;2022-11-12T11:06:28;15.17;;;6.50;;
12350;SDS011;6240;51.538;7.696;2022-11-12T11:09:07;10.97;;;6.30;;
12350;SDS011;6240;51.538;7.696;2022-11-12T11:11:35;11.90;;;6.00;;
12350;SDS011;6240;51.538;7.696;2022-11-12T11:14:18;9.10;;;5.80;;
12350;SDS011;6240;51.538;7.696;2022-11-12T11:16:52;12.83;;;6.90;;
12350;SDS011;6240;51.538;7.696;2022-11-12T11:19:22;10.30;;;5.90;;
12350;SDS011;6240;51.538;7.696;2022-11-12T11:22:11;15.93;;;5.83;;
12350;SDS011;6240;51.538;7.696;2022-11-12T11:24:43;7.77;;;5.30;;
12350;SDS011;6240;51.538;7.696;2022-11-12T11:27:22;8.73;;;5.90;;
12350;SDS011;6240;51.538;7.696;2022-11-12T11:29:58;8.23;;;4.87;;
12350;SDS011;6240;51.538;7.696;2022-11-12T11:32:36;10.33;;;5.20;;
12350;SDS011;6240;51.538;7.696;2022-11-12T11:35:11;7.73;;;4.73;;
12350;SDS011;6240;51.538;7.696;2022-11-12T11:37:43;7.47;;;4.23;;
12350;SDS011;6240;51.538;7.696;2022-11-12T11:40:18;6.00;;;4.30;;
12350;SDS011;6240;51.538;7.696;2022-11-12T11:42:55;4.57;;;4.00;;
12350;SDS011;6240;51.538;7.696;2022-11-12T11:45:29;5.43;;;3.87;;
12350;SDS011;6240;51.538;7.696;2022-11-12T11:48:03;5.30;;;3.77;;
12350;SDS011;6240;51.538;7.696;2022-11-12T11:50:32;6.53;;;3.60;;
12350;SDS011;6240;51.538;7.696;2022-11-12T11:53:01;8.43;;;4.37;;
12350;SDS011;6240;51.538;7.696;2022-11-12T11:55:37;4.40;;;3.33;;
12350;SDS011;6240;51.538;7.696;2022-11-12T11:58:16;4.27;;;3.37;;
12350;SDS011;6240;51.538;7.696;2022-11-12T12:00:47;3.43;;;2.77;;
12350;SDS011;6240;51.538;7.696;2022-11-12T12:03:20;2.93;;;2.70;;
12350;SDS011;6240;51.538;7.696;2022-11-12T12:05:50;3.33;;;2.60;;
12350;SDS011;6240;51.538;7.696;2022-11-12T12:08:24;6.53;;;3.00;;
12350;SDS011;6240;51.538;7.696;2022-11-12T12:10:55;4.00;;;2.97;;
12350;SDS011;6240;51.538;7.696;2022-11-12T12:13:28;3.87;;;3.20;;
12350;SDS011;6240;51.538;7.696;2022-11-12T12:16:01;11.93;;;3.47;;
12350;SDS011;6240;51.538;7.696;2022-11-12T12:18:36;4.73;;;3.53;;
12350;SDS011;6240;51.538;7.696;2022-11-12T12:21:08;4.93;;;3.70;;
12350;SDS011;6240;51.538;7.696;2022-11-12T12:23:39;3.83;;;3.30;;
12350;SDS011;6240;51.538;7.696;2022-11-12T12:26:10;6.10;;;4.23;;
12350;SDS011;6240;51.538;7.696;2022-11-12T12:28:38;6.03;;;4.50;;
12350;SDS011;6240;51.538;7.696;2022-11-12T12:31:09;5.43;;;4.17;;
12350;SDS011;6240;51.538;7.696;2022-11-12T12:33:41;4.60;;;3.70;;
12350;SDS011;6240;51.538;7.696;2022-11-12T12:36:11;3.57;;;3.27;;
12350;SDS011;6240;51.538;7.696;2022-11-12T12:38:41;11.67;;;4.10;;
12350;SDS011;6240;51.538;7.696;2022-11-12T12:41:11;4.13;;;3.33;;
12350;SDS011;6240;51.538;7.696;2022-11-12T12:43:42;6.50;;;3.80;;
12350;SDS011;6240;51.538;7.696;2022-11-12T12:46:12;3.93;;;3.40;;
12350;SDS011;6240;51.538;7.696;2022-11-12T12:48:42;4.73;;;4.20;;
12350;SDS011;6240;51.538;7.696;2022-11-12T12:51:09;5.70;;;4.00;;
12350;SDS011;6240;51.538;7.696;2022-11-12T12:53:37;5.43;;;3.80;;
12350;SDS011;6240;51.538;7.696;2022-11-12T12:56:06;4.40;;;3.17;;
12350;SDS011;6240;51.538;7.696;2022-11-12T12:58:55;4.53;;;3.60;;
12350;SDS011;6240;51.538;7.696;2022-11-12T13:01:28;4.17;;;3.47;;
12350;SDS011;6240;51.538;7.696;2022-11-12T13:03:59;7.40;;;3.87;;
12350;SDS011;6240;51.538;7.696;2022-11-12T13:06:28;3.93;;;3.50;;
12350;SDS011;6240;51.538;7.696;2022-11-12T13:08:58;6.87;;;3.47;;
12350;SDS011;6240;51.538;7.696;2022-11-12T13:11:45;6.57;;;3.80;;
12350;SDS011;6240;51.538;7.696;2022-11-12T13:14:44;3.87;;;3.03;;
12350;SDS011;6240;51.538;7.696;2022-11-12T13:17:40;3.50;;;2.63;;
12350;SDS011;6240;51.538;7.696;2022-11-12T13:23:00;3.30;;;2.53;;
12350;SDS011;6240;51.538;7.696;2022-11-12T13:25:31;2.90;;;2.40;;
12350;SDS011;6240;51.538;7.696;2022-11-12T13:28:11;3.77;;;2.30;;
12350;SDS011;6240;51.538;7.696;2022-11-12T13:30:58;5.97;;;2.20;;
12350;SDS011;6240;51.538;7.696;2022-11-12T13:33:28;3.43;;;2.37;;
12350;SDS011;6240;51.538;7.696;2022-11-12T13:38:44;4.00;;;2.10;;
12350;SDS011;6240;51.538;7.696;2022-11-12T13:41:13;2.60;;;2.23;;
12350;SDS011;6240;51.538;7.696;2022-11-12T13:43:41;4.67;;;2.33;;
12350;SDS011;6240;51.538;7.696;2022-11-12T13:48:54;2.57;;;2.00;;
12350;SDS011;6240;51.538;7.696;2022-11-12T13:51:25;5.30;;;2.17;;
12350;SDS011;6240;51.538;7.696;2022-11-12T13:53:55;4.87;;;2.10;;
12350;SDS011;6240;51.538;7.696;2022-11-12T13:56:24;5.57;;;2.43;;
12350;SDS011;6240;51.538;7.696;2022-11-12T13:58:52;6.73;;;2.63;;
12350;SDS011;6240;51.538;7.696;2022-11-12T14:01:20;3.30;;;2.27;;
12350;SDS011;6240;51.538;7.696;2022-11-12T14:03:57;3.47;;;2.40;;
12350;SDS011;6240;51.538;7.696;2022-11-12T14:06:27;5.47;;;2.63;;
12350;SDS011;6240;51.538;7.696;2022-11-12T14:09:05;3.40;;;2.00;;
12350;SDS011;6240;51.538;7.696;2022-11-12T14:11:41;4.07;;;2.23;;
12350;SDS011;6240;51.538;7.696;2022-11-12T14:14:14;2.80;;;2.40;;
12350;SDS011;6240;51.538;7.696;2022-11-12T14:16:48;4.67;;;2.67;;
12350;SDS011;6240;51.538;7.696;2022-11-12T14:19:29;4.87;;;2.50;;
12350;SDS011;6240;51.538;7.696;2022-11-12T14:22:12;2.60;;;2.40;;
12350;SDS011;6240;51.538;7.696;2022-11-12T14:24:41;3.60;;;2.57;;
12350;SDS011;6240;51.538;7.696;2022-11-12T14:27:23;5.90;;;2.30;;
12350;SDS011;6240;51.538;7.696;2022-11-12T14:30:08;2.70;;;2.20;;
12350;SDS011;6240;51.538;7.696;2022-11-12T14:32:40;4.93;;;2.40;;
12350;SDS011;6240;51.538;7.696;2022-11-12T14:35:20;3.23;;;2.30;;
12350;SDS011;6240;51.538;7.696;2022-11-12T14:37:52;3.03;;;1.93;;
12350;SDS011;6240;51.538;7.696;2022-11-12T14:40:21;2.80;;;2.20;;
12350;SDS011;6240;51.538;7.696;2022-11-12T14:42:49;4.53;;;2.50;;
12350;SDS011;6240;51.538;7.696;2022-11-12T14:45:17;5.53;;;2.80;;
12350;SDS011;6240;51.538;7.696;2022-11-12T14:47:45;3.70;;;2.30;;
12350;SDS011;6240;51.538;7.696;2022-11-12T14:50:13;4.30;;;2.53;;
12350;SDS011;6240;51.538;7.696;2022-11-12T14:52:41;3.83;;;2.50;;
12350;SDS011;6240;51.538;7.696;2022-11-12T14:55:17;10.03;;;6.30;;
12350;SDS011;6240;51.538;7.696;2022-11-12T14:57:47;4.00;;;3.17;;
12350;SDS011;6240;51.538;7.696;2022-11-12T15:00:15;3.80;;;3.40;;
12350;SDS011;6240;51.538;7.696;2022-11-12T15:02:43;5.07;;;3.40;;
12350;SDS011;6240;51.538;7.696;2022-11-12T15:05:12;4.23;;;3.20;;
12350;SDS011;6240;51.538;7.696;2022-11-12T15:07:52;5.53;;;3.20;;
12350;SDS011;6240;51.538;7.696;2022-11-12T15:10:26;3.50;;;3.10;;
12350;SDS011;6240;51.538;7.696;2022-11-12T15:13:02;3.53;;;3.20;;
12350;SDS011;6240;51.538;7.696;2022-11-12T15:15:29;4.93;;;3.60;;
12350;SDS011;6240;51.538;7.696;2022-11-12T15:17:58;4.93;;;3.63;;
12350;SDS011;6240;51.538;7.696;2022-11-12T15:20:25;4.70;;;3.27;;
12350;SDS011;6240;51.538;7.696;2022-11-12T15:22:53;3.53;;;2.87;;
12350;SDS011;6240;51.538;7.696;2022-11-12T15:25:21;5.00;;;3.20;;
12350;SDS011;6240;51.538;7.696;2022-11-12T15:27:49;6.10;;;3.27;;
12350;SDS011;6240;51.538;7.696;2022-11-12T15:30:18;3.73;;;2.90;;
12350;SDS011;6240;51.538;7.696;2022-11-12T15:32:47;5.40;;;2.80;;
12350;SDS011;6240;51.538;7.696;2022-11-12T15:38:01;7.17;;;3.30;;